Rogers, Arkansas
Current Conditions -  °F | °C
As of 7:17 PM on Sunday 23 Nov 2014 (Local Time) from KROG Reporting Station
Moderate Rain Moderate Rain  
Wind Chill: 57°   Ceiling: 2700
Heat Index: 57°   Visibility: 9mi
Dew Point: 54°   Wind: 20mph
Humidity: 88%   Direction: 250°WSW
Pressure: 29.34"   Gusts: 26mph
Location:  36.33°N, 94.12°W
Report Text: KROG 240117Z AUTO 25017G23KT 9SM RA FEW017 BKN027 OVC090 14/12 A2934 RMK AO2 RAB15 P0002 TSNO
Loading
Personal Weather Stations






























Interactive Weather Map New forecast layout! Learn more

10-Day Weather Forecast

Advertisements
Track Severe Weather on mobile